sensor_id;sensor_type;location;lat;lon;timestamp;P1;durP1;ratioP1;P2;durP2;ratioP2
80637;SDS011;69991;51.760;19.528;2023-12-20T00:01:30;9.50;;;5.50;;
80637;SDS011;69991;51.760;19.528;2023-12-20T00:03:59;11.90;;;6.70;;
80637;SDS011;69991;51.760;19.528;2023-12-20T00:06:28;12.00;;;6.80;;
80637;SDS011;69991;51.760;19.528;2023-12-20T00:08:58;12.50;;;7.40;;
80637;SDS011;69991;51.760;19.528;2023-12-20T00:11:27;9.60;;;5.80;;
80637;SDS011;69991;51.760;19.528;2023-12-20T00:13:56;11.70;;;7.10;;
80637;SDS011;69991;51.760;19.528;2023-12-20T00:16:25;9.00;;;5.40;;
80637;SDS011;69991;51.760;19.528;2023-12-20T00:18:54;9.70;;;5.90;;
80637;SDS011;69991;51.760;19.528;2023-12-20T00:21:23;8.60;;;3.40;;
80637;SDS011;69991;51.760;19.528;2023-12-20T00:23:52;12.70;;;7.40;;
80637;SDS011;69991;51.760;19.528;2023-12-20T00:26:21;13.10;;;7.10;;
80637;SDS011;69991;51.760;19.528;2023-12-20T00:28:50;10.80;;;6.80;;
80637;SDS011;69991;51.760;19.528;2023-12-20T00:31:19;10.30;;;6.00;;
80637;SDS011;69991;51.760;19.528;2023-12-20T00:33:48;7.80;;;4.50;;
80637;SDS011;69991;51.760;19.528;2023-12-20T00:36:18;9.20;;;5.60;;
80637;SDS011;69991;51.760;19.528;2023-12-20T00:38:47;10.10;;;6.00;;
80637;SDS011;69991;51.760;19.528;2023-12-20T00:41:16;8.00;;;4.80;;
80637;SDS011;69991;51.760;19.528;2023-12-20T00:43:45;10.60;;;6.00;;
80637;SDS011;69991;51.760;19.528;2023-12-20T00:46:14;10.00;;;6.20;;
80637;SDS011;69991;51.760;19.528;2023-12-20T00:48:44;9.70;;;5.60;;
80637;SDS011;69991;51.760;19.528;2023-12-20T00:51:14;8.70;;;6.00;;
80637;SDS011;69991;51.760;19.528;2023-12-20T00:53:43;9.90;;;5.30;;
80637;SDS011;69991;51.760;19.528;2023-12-20T00:56:12;8.50;;;5.40;;
80637;SDS011;69991;51.760;19.528;2023-12-20T00:58:41;10.80;;;5.90;;
80637;SDS011;69991;51.760;19.528;2023-12-20T01:01:10;8.50;;;4.80;;
80637;SDS011;69991;51.760;19.528;2023-12-20T01:03:39;10.10;;;6.10;;
80637;SDS011;69991;51.760;19.528;2023-12-20T01:06:08;10.30;;;5.70;;
80637;SDS011;69991;51.760;19.528;2023-12-20T01:08:37;10.20;;;6.20;;
80637;SDS011;69991;51.760;19.528;2023-12-20T01:11:07;13.30;;;7.10;;
80637;SDS011;69991;51.760;19.528;2023-12-20T01:13:36;7.30;;;3.90;;
80637;SDS011;69991;51.760;19.528;2023-12-20T01:16:05;10.30;;;5.80;;
80637;SDS011;69991;51.760;19.528;2023-12-20T01:18:34;7.70;;;4.70;;
80637;SDS011;69991;51.760;19.528;2023-12-20T01:21:04;8.40;;;4.50;;
80637;SDS011;69991;51.760;19.528;2023-12-20T01:23:33;10.10;;;5.90;;
80637;SDS011;69991;51.760;19.528;2023-12-20T01:26:02;9.70;;;5.20;;
80637;SDS011;69991;51.760;19.528;2023-12-20T01:28:33;12.30;;;6.90;;
80637;SDS011;69991;51.760;19.528;2023-12-20T01:31:02;10.70;;;6.30;;
80637;SDS011;69991;51.760;19.528;2023-12-20T01:33:32;11.40;;;6.00;;
80637;SDS011;69991;51.760;19.528;2023-12-20T01:36:01;8.80;;;5.50;;
80637;SDS011;69991;51.760;19.528;2023-12-20T01:38:31;10.40;;;6.20;;
80637;SDS011;69991;51.760;19.528;2023-12-20T01:41:01;9.80;;;4.90;;
80637;SDS011;69991;51.760;19.528;2023-12-20T01:43:30;10.60;;;6.00;;
80637;SDS011;69991;51.760;19.528;2023-12-20T01:46:08;6.50;;;3.80;;
80637;SDS011;69991;51.760;19.528;2023-12-20T01:48:39;9.50;;;5.10;;
80637;SDS011;69991;51.760;19.528;2023-12-20T01:51:08;11.10;;;6.50;;
80637;SDS011;69991;51.760;19.528;2023-12-20T01:53:37;7.40;;;4.20;;
80637;SDS011;69991;51.760;19.528;2023-12-20T01:56:07;9.50;;;6.10;;
80637;SDS011;69991;51.760;19.528;2023-12-20T01:58:43;9.40;;;6.10;;
80637;SDS011;69991;51.760;19.528;2023-12-20T02:01:13;10.60;;;5.90;;
80637;SDS011;69991;51.760;19.528;2023-12-20T02:03:43;9.20;;;6.00;;
80637;SDS011;69991;51.760;19.528;2023-12-20T02:06:12;12.60;;;6.90;;
80637;SDS011;69991;51.760;19.528;2023-12-20T02:08:41;9.40;;;5.20;;
80637;SDS011;69991;51.760;19.528;2023-12-20T02:11:10;8.50;;;4.80;;
80637;SDS011;69991;51.760;19.528;2023-12-20T02:13:39;7.40;;;4.60;;
80637;SDS011;69991;51.760;19.528;2023-12-20T02:16:09;9.60;;;5.70;;
80637;SDS011;69991;51.760;19.528;2023-12-20T02:18:38;6.00;;;3.60;;
80637;SDS011;69991;51.760;19.528;2023-12-20T02:21:08;6.90;;;4.20;;
80637;SDS011;69991;51.760;19.528;2023-12-20T02:23:38;6.00;;;3.60;;
80637;SDS011;69991;51.760;19.528;2023-12-20T02:26:07;5.10;;;2.80;;
80637;SDS011;69991;51.760;19.528;2023-12-20T02:28:36;7.40;;;4.60;;
80637;SDS011;69991;51.760;19.528;2023-12-20T02:31:05;7.60;;;4.30;;
80637;SDS011;69991;51.760;19.528;2023-12-20T02:33:34;4.90;;;1.80;;
80637;SDS011;69991;51.760;19.528;2023-12-20T02:36:03;5.00;;;2.60;;
80637;SDS011;69991;51.760;19.528;2023-12-20T02:38:33;4.70;;;2.50;;
80637;SDS011;69991;51.760;19.528;2023-12-20T02:41:03;6.00;;;3.30;;
80637;SDS011;69991;51.760;19.528;2023-12-20T02:43:31;7.20;;;4.20;;
80637;SDS011;69991;51.760;19.528;2023-12-20T02:46:01;6.10;;;3.50;;
80637;SDS011;69991;51.760;19.528;2023-12-20T02:48:30;5.30;;;3.00;;
80637;SDS011;69991;51.760;19.528;2023-12-20T02:50:59;4.80;;;2.90;;
80637;SDS011;69991;51.760;19.528;2023-12-20T02:53:28;5.60;;;3.00;;
80637;SDS011;69991;51.760;19.528;2023-12-20T02:55:57;6.40;;;3.30;;
80637;SDS011;69991;51.760;19.528;2023-12-20T02:58:26;7.70;;;3.90;;
80637;SDS011;69991;51.760;19.528;2023-12-20T03:00:55;7.40;;;3.80;;
80637;SDS011;69991;51.760;19.528;2023-12-20T03:03:24;6.10;;;3.50;;
80637;SDS011;69991;51.760;19.528;2023-12-20T03:05:53;5.50;;;3.10;;
80637;SDS011;69991;51.760;19.528;2023-12-20T03:08:22;5.40;;;3.00;;
80637;SDS011;69991;51.760;19.528;2023-12-20T03:10:51;7.00;;;3.70;;
80637;SDS011;69991;51.760;19.528;2023-12-20T03:13:21;4.80;;;2.70;;
80637;SDS011;69991;51.760;19.528;2023-12-20T03:15:51;6.20;;;3.30;;
80637;SDS011;69991;51.760;19.528;2023-12-20T03:18:20;7.40;;;3.90;;
80637;SDS011;69991;51.760;19.528;2023-12-20T03:20:49;6.00;;;3.20;;
80637;SDS011;69991;51.760;19.528;2023-12-20T03:23:19;6.00;;;3.20;;
80637;SDS011;69991;51.760;19.528;2023-12-20T03:25:48;4.90;;;2.60;;
80637;SDS011;69991;51.760;19.528;2023-12-20T03:28:17;5.70;;;3.20;;
80637;SDS011;69991;51.760;19.528;2023-12-20T03:30:46;5.50;;;2.80;;
80637;SDS011;69991;51.760;19.528;2023-12-20T03:33:15;5.70;;;2.90;;
80637;SDS011;69991;51.760;19.528;2023-12-20T03:35:44;5.70;;;2.90;;
80637;SDS011;69991;51.760;19.528;2023-12-20T03:38:13;4.70;;;1.80;;
80637;SDS011;69991;51.760;19.528;2023-12-20T03:40:42;6.10;;;2.40;;
80637;SDS011;69991;51.760;19.528;2023-12-20T03:43:11;4.80;;;2.50;;
80637;SDS011;69991;51.760;19.528;2023-12-20T03:45:41;5.00;;;3.00;;
80637;SDS011;69991;51.760;19.528;2023-12-20T03:48:11;7.00;;;3.60;;
80637;SDS011;69991;51.760;19.528;2023-12-20T03:50:40;5.80;;;3.70;;
80637;SDS011;69991;51.760;19.528;2023-12-20T03:53:09;5.60;;;3.10;;
80637;SDS011;69991;51.760;19.528;2023-12-20T03:55:39;5.70;;;3.10;;
80637;SDS011;69991;51.760;19.528;2023-12-20T03:58:08;6.30;;;3.40;;
80637;SDS011;69991;51.760;19.528;2023-12-20T04:00:37;5.60;;;3.40;;
80637;SDS011;69991;51.760;19.528;2023-12-20T04:03:06;6.90;;;3.80;;
80637;SDS011;69991;51.760;19.528;2023-12-20T04:05:36;7.00;;;4.10;;
80637;SDS011;69991;51.760;19.528;2023-12-20T04:08:05;6.30;;;3.80;;
80637;SDS011;69991;51.760;19.528;2023-12-20T04:10:35;5.20;;;3.20;;
80637;SDS011;69991;51.760;19.528;2023-12-20T04:13:04;6.10;;;3.00;;
80637;SDS011;69991;51.760;19.528;2023-12-20T04:15:33;5.20;;;2.90;;
80637;SDS011;69991;51.760;19.528;2023-12-20T04:18:02;4.90;;;2.70;;
80637;SDS011;69991;51.760;19.528;2023-12-20T04:20:31;6.20;;;3.70;;
80637;SDS011;69991;51.760;19.528;2023-12-20T04:23:00;5.40;;;3.10;;
80637;SDS011;69991;51.760;19.528;2023-12-20T04:25:29;4.80;;;2.60;;
80637;SDS011;69991;51.760;19.528;2023-12-20T04:27:58;4.60;;;2.60;;
80637;SDS011;69991;51.760;19.528;2023-12-20T04:30:27;5.20;;;2.50;;
80637;SDS011;69991;51.760;19.528;2023-12-20T04:32:56;5.40;;;2.90;;
80637;SDS011;69991;51.760;19.528;2023-12-20T04:35:26;3.00;;;1.30;;
80637;SDS011;69991;51.760;19.528;2023-12-20T04:37:55;4.60;;;2.20;;
80637;SDS011;69991;51.760;19.528;2023-12-20T04:40:24;4.60;;;2.30;;
80637;SDS011;69991;51.760;19.528;2023-12-20T04:42:53;4.60;;;2.50;;
80637;SDS011;69991;51.760;19.528;2023-12-20T04:45:22;3.80;;;1.70;;
80637;SDS011;69991;51.760;19.528;2023-12-20T04:47:52;3.80;;;1.50;;
80637;SDS011;69991;51.760;19.528;2023-12-20T04:50:22;3.80;;;1.70;;
80637;SDS011;69991;51.760;19.528;2023-12-20T04:52:51;4.30;;;2.20;;
80637;SDS011;69991;51.760;19.528;2023-12-20T04:55:20;4.60;;;2.50;;
80637;SDS011;69991;51.760;19.528;2023-12-20T04:57:49;4.40;;;2.50;;
80637;SDS011;69991;51.760;19.528;2023-12-20T05:00:18;5.00;;;2.90;;
80637;SDS011;69991;51.760;19.528;2023-12-20T05:02:47;4.90;;;2.80;;
80637;SDS011;69991;51.760;19.528;2023-12-20T05:05:16;4.40;;;2.20;;
80637;SDS011;69991;51.760;19.528;2023-12-20T05:07:46;5.00;;;2.70;;
80637;SDS011;69991;51.760;19.528;2023-12-20T05:10:16;4.90;;;2.70;;
80637;SDS011;69991;51.760;19.528;2023-12-20T05:12:45;5.70;;;2.90;;
80637;SDS011;69991;51.760;19.528;2023-12-20T05:15:14;4.90;;;2.90;;
80637;SDS011;69991;51.760;19.528;2023-12-20T05:17:43;5.70;;;3.40;;
80637;SDS011;69991;51.760;19.528;2023-12-20T05:20:12;3.70;;;1.70;;
80637;SDS011;69991;51.760;19.528;2023-12-20T05:22:41;4.70;;;2.10;;
80637;SDS011;69991;51.760;19.528;2023-12-20T05:25:10;5.80;;;3.10;;
80637;SDS011;69991;51.760;19.528;2023-12-20T05:27:39;5.40;;;3.10;;
80637;SDS011;69991;51.760;19.528;2023-12-20T05:30:09;5.50;;;3.00;;
80637;SDS011;69991;51.760;19.528;2023-12-20T05:32:38;5.90;;;3.10;;
80637;SDS011;69991;51.760;19.528;2023-12-20T05:35:08;5.50;;;3.40;;
80637;SDS011;69991;51.760;19.528;2023-12-20T05:37:37;5.10;;;2.80;;
80637;SDS011;69991;51.760;19.528;2023-12-20T05:40:06;5.40;;;3.10;;
80637;SDS011;69991;51.760;19.528;2023-12-20T05:42:39;5.30;;;3.30;;
80637;SDS011;69991;51.760;19.528;2023-12-20T05:45:08;4.30;;;2.00;;
80637;SDS011;69991;51.760;19.528;2023-12-20T05:47:37;5.70;;;2.90;;
80637;SDS011;69991;51.760;19.528;2023-12-20T05:50:06;5.30;;;3.10;;
80637;SDS011;69991;51.760;19.528;2023-12-20T05:52:36;6.60;;;3.80;;
80637;SDS011;69991;51.760;19.528;2023-12-20T05:55:05;4.60;;;2.00;;
80637;SDS011;69991;51.760;19.528;2023-12-20T05:57:34;5.60;;;2.60;;
80637;SDS011;69991;51.760;19.528;2023-12-20T06:00:04;4.70;;;2.50;;
80637;SDS011;69991;51.760;19.528;2023-12-20T06:02:33;5.10;;;2.70;;
80637;SDS011;69991;51.760;19.528;2023-12-20T06:05:06;5.10;;;2.60;;
80637;SDS011;69991;51.760;19.528;2023-12-20T06:07:35;4.10;;;2.10;;
80637;SDS011;69991;51.760;19.528;2023-12-20T06:10:05;5.20;;;2.70;;
80637;SDS011;69991;51.760;19.528;2023-12-20T06:12:35;4.40;;;2.10;;
80637;SDS011;69991;51.760;19.528;2023-12-20T06:15:05;5.00;;;3.00;;
80637;SDS011;69991;51.760;19.528;2023-12-20T06:17:34;3.80;;;1.70;;
80637;SDS011;69991;51.760;19.528;2023-12-20T06:20:04;6.50;;;3.50;;
80637;SDS011;69991;51.760;19.528;2023-12-20T06:22:36;6.10;;;3.40;;
80637;SDS011;69991;51.760;19.528;2023-12-20T06:25:06;5.10;;;2.90;;
80637;SDS011;69991;51.760;19.528;2023-12-20T06:27:35;5.30;;;2.40;;
80637;SDS011;69991;51.760;19.528;2023-12-20T06:30:05;4.70;;;2.30;;
80637;SDS011;69991;51.760;19.528;2023-12-20T06:32:35;4.70;;;2.70;;
80637;SDS011;69991;51.760;19.528;2023-12-20T06:35:04;4.20;;;2.30;;
80637;SDS011;69991;51.760;19.528;2023-12-20T06:37:34;4.70;;;2.00;;
80637;SDS011;69991;51.760;19.528;2023-12-20T06:40:04;6.00;;;3.10;;
80637;SDS011;69991;51.760;19.528;2023-12-20T06:42:33;6.00;;;2.80;;
80637;SDS011;69991;51.760;19.528;2023-12-20T06:45:14;4.90;;;2.50;;
80637;SDS011;69991;51.760;19.528;2023-12-20T06:47:43;3.40;;;1.60;;
80637;SDS011;69991;51.760;19.528;2023-12-20T06:50:12;5.90;;;3.50;;
80637;SDS011;69991;51.760;19.528;2023-12-20T06:52:41;5.50;;;3.00;;
80637;SDS011;69991;51.760;19.528;2023-12-20T06:55:10;5.40;;;2.90;;
80637;SDS011;69991;51.760;19.528;2023-12-20T06:57:39;5.90;;;3.30;;
80637;SDS011;69991;51.760;19.528;2023-12-20T07:00:10;4.60;;;2.60;;
80637;SDS011;69991;51.760;19.528;2023-12-20T07:02:40;4.20;;;1.90;;
80637;SDS011;69991;51.760;19.528;2023-12-20T07:05:09;4.50;;;2.20;;
80637;SDS011;69991;51.760;19.528;2023-12-20T07:07:38;5.30;;;2.60;;
80637;SDS011;69991;51.760;19.528;2023-12-20T07:10:07;5.70;;;3.10;;
80637;SDS011;69991;51.760;19.528;2023-12-20T07:12:36;4.90;;;2.60;;
80637;SDS011;69991;51.760;19.528;2023-12-20T07:15:06;6.20;;;3.00;;
80637;SDS011;69991;51.760;19.528;2023-12-20T07:17:36;4.80;;;2.80;;
80637;SDS011;69991;51.760;19.528;2023-12-20T07:20:06;5.70;;;2.80;;
80637;SDS011;69991;51.760;19.528;2023-12-20T07:22:38;5.50;;;2.40;;
80637;SDS011;69991;51.760;19.528;2023-12-20T07:25:08;5.00;;;2.50;;
80637;SDS011;69991;51.760;19.528;2023-12-20T07:27:37;5.50;;;2.40;;
80637;SDS011;69991;51.760;19.528;2023-12-20T07:30:07;6.30;;;3.50;;
80637;SDS011;69991;51.760;19.528;2023-12-20T07:32:37;6.60;;;3.90;;
80637;SDS011;69991;51.760;19.528;2023-12-20T07:35:06;6.50;;;3.30;;
80637;SDS011;69991;51.760;19.528;2023-12-20T07:37:36;4.10;;;2.30;;
80637;SDS011;69991;51.760;19.528;2023-12-20T07:40:05;5.60;;;3.00;;
80637;SDS011;69991;51.760;19.528;2023-12-20T07:42:35;6.60;;;3.70;;
80637;SDS011;69991;51.760;19.528;2023-12-20T07:45:05;4.20;;;2.10;;
80637;SDS011;69991;51.760;19.528;2023-12-20T07:47:34;6.20;;;3.20;;
80637;SDS011;69991;51.760;19.528;2023-12-20T07:50:04;7.70;;;3.90;;
80637;SDS011;69991;51.760;19.528;2023-12-20T07:52:34;7.90;;;4.20;;
80637;SDS011;69991;51.760;19.528;2023-12-20T07:55:03;4.80;;;2.80;;
80637;SDS011;69991;51.760;19.528;2023-12-20T07:57:33;7.10;;;3.20;;
80637;SDS011;69991;51.760;19.528;2023-12-20T08:00:02;4.90;;;2.30;;
80637;SDS011;69991;51.760;19.528;2023-12-20T08:02:32;7.20;;;3.80;;
80637;SDS011;69991;51.760;19.528;2023-12-20T08:05:02;8.20;;;4.10;;
80637;SDS011;69991;51.760;19.528;2023-12-20T08:07:31;5.70;;;3.00;;
80637;SDS011;69991;51.760;19.528;2023-12-20T08:10:00;5.80;;;3.20;;
80637;SDS011;69991;51.760;19.528;2023-12-20T08:12:30;8.30;;;3.90;;
80637;SDS011;69991;51.760;19.528;2023-12-20T08:14:59;7.00;;;3.10;;
80637;SDS011;69991;51.760;19.528;2023-12-20T08:17:28;5.50;;;2.30;;
80637;SDS011;69991;51.760;19.528;2023-12-20T08:19:57;4.80;;;2.00;;
80637;SDS011;69991;51.760;19.528;2023-12-20T08:22:26;7.80;;;4.00;;
80637;SDS011;69991;51.760;19.528;2023-12-20T08:24:55;8.10;;;4.80;;
80637;SDS011;69991;51.760;19.528;2023-12-20T08:27:24;7.90;;;4.00;;
80637;SDS011;69991;51.760;19.528;2023-12-20T08:29:54;5.30;;;2.40;;
80637;SDS011;69991;51.760;19.528;2023-12-20T08:32:26;6.70;;;3.90;;
80637;SDS011;69991;51.760;19.528;2023-12-20T08:34:55;7.20;;;4.00;;
80637;SDS011;69991;51.760;19.528;2023-12-20T08:37:25;6.60;;;3.80;;
80637;SDS011;69991;51.760;19.528;2023-12-20T08:39:54;6.80;;;4.00;;
80637;SDS011;69991;51.760;19.528;2023-12-20T08:42:23;7.00;;;3.10;;
80637;SDS011;69991;51.760;19.528;2023-12-20T08:44:53;5.80;;;2.70;;
80637;SDS011;69991;51.760;19.528;2023-12-20T08:47:22;3.90;;;1.90;;
80637;SDS011;69991;51.760;19.528;2023-12-20T08:49:51;4.90;;;2.90;;
80637;SDS011;69991;51.760;19.528;2023-12-20T08:52:25;4.90;;;2.30;;
80637;SDS011;69991;51.760;19.528;2023-12-20T08:54:56;4.80;;;2.40;;
80637;SDS011;69991;51.760;19.528;2023-12-20T08:57:25;4.70;;;2.20;;
80637;SDS011;69991;51.760;19.528;2023-12-20T08:59:54;5.30;;;3.20;;
80637;SDS011;69991;51.760;19.528;2023-12-20T09:02:23;3.90;;;1.80;;
80637;SDS011;69991;51.760;19.528;2023-12-20T09:04:52;5.50;;;2.80;;
80637;SDS011;69991;51.760;19.528;2023-12-20T09:07:22;4.40;;;1.90;;
80637;SDS011;69991;51.760;19.528;2023-12-20T09:09:52;4.80;;;2.80;;
80637;SDS011;69991;51.760;19.528;2023-12-20T09:12:22;4.50;;;2.00;;
80637;SDS011;69991;51.760;19.528;2023-12-20T09:14:51;6.90;;;3.50;;
80637;SDS011;69991;51.760;19.528;2023-12-20T09:17:21;5.30;;;2.70;;
80637;SDS011;69991;51.760;19.528;2023-12-20T09:19:52;5.20;;;2.60;;
80637;SDS011;69991;51.760;19.528;2023-12-20T09:22:23;5.20;;;2.40;;
80637;SDS011;69991;51.760;19.528;2023-12-20T09:24:52;4.10;;;1.90;;
80637;SDS011;69991;51.760;19.528;2023-12-20T09:27:22;3.70;;;1.60;;
80637;SDS011;69991;51.760;19.528;2023-12-20T09:29:51;5.70;;;2.40;;
80637;SDS011;69991;51.760;19.528;2023-12-20T09:32:22;3.40;;;1.60;;
80637;SDS011;69991;51.760;19.528;2023-12-20T09:34:51;4.00;;;2.00;;
80637;SDS011;69991;51.760;19.528;2023-12-20T09:37:20;2.90;;;1.30;;
80637;SDS011;69991;51.760;19.528;2023-12-20T09:39:49;4.00;;;2.20;;
80637;SDS011;69991;51.760;19.528;2023-12-20T09:42:21;4.90;;;2.80;;
80637;SDS011;69991;51.760;19.528;2023-12-20T09:45:11;4.50;;;2.40;;
80637;SDS011;69991;51.760;19.528;2023-12-20T09:47:43;4.60;;;2.60;;
80637;SDS011;69991;51.760;19.528;2023-12-20T09:50:12;3.90;;;2.10;;
80637;SDS011;69991;51.760;19.528;2023-12-20T09:52:42;4.60;;;2.00;;
80637;SDS011;69991;51.760;19.528;2023-12-20T09:55:12;3.80;;;2.00;;
80637;SDS011;69991;51.760;19.528;2023-12-20T09:57:41;4.80;;;2.60;;
80637;SDS011;69991;51.760;19.528;2023-12-20T10:00:12;4.00;;;2.10;;
80637;SDS011;69991;51.760;19.528;2023-12-20T10:02:59;4.50;;;2.70;;
80637;SDS011;69991;51.760;19.528;2023-12-20T10:05:31;3.50;;;2.00;;
80637;SDS011;69991;51.760;19.528;2023-12-20T10:08:02;3.70;;;1.50;;
80637;SDS011;69991;51.760;19.528;2023-12-20T10:10:32;5.10;;;2.60;;
80637;SDS011;69991;51.760;19.528;2023-12-20T10:13:13;4.40;;;2.50;;
80637;SDS011;69991;51.760;19.528;2023-12-20T10:15:42;4.40;;;1.90;;
80637;SDS011;69991;51.760;19.528;2023-12-20T10:18:12;4.50;;;2.50;;
80637;SDS011;69991;51.760;19.528;2023-12-20T10:20:42;3.80;;;2.10;;
80637;SDS011;69991;51.760;19.528;2023-12-20T10:23:12;4.60;;;2.10;;
80637;SDS011;69991;51.760;19.528;2023-12-20T10:25:42;4.70;;;2.40;;
80637;SDS011;69991;51.760;19.528;2023-12-20T10:28:13;4.10;;;2.30;;
80637;SDS011;69991;51.760;19.528;2023-12-20T10:30:46;5.20;;;3.00;;
80637;SDS011;69991;51.760;19.528;2023-12-20T10:33:23;5.60;;;2.70;;
80637;SDS011;69991;51.760;19.528;2023-12-20T10:35:56;4.40;;;2.40;;
80637;SDS011;69991;51.760;19.528;2023-12-20T10:38:25;5.60;;;3.10;;
80637;SDS011;69991;51.760;19.528;2023-12-20T10:40:56;4.60;;;2.50;;
80637;SDS011;69991;51.760;19.528;2023-12-20T10:43:29;3.60;;;1.70;;
80637;SDS011;69991;51.760;19.528;2023-12-20T10:45:59;4.40;;;1.90;;
80637;SDS011;69991;51.760;19.528;2023-12-20T10:48:29;9.50;;;3.70;;
80637;SDS011;69991;51.760;19.528;2023-12-20T10:50:59;5.40;;;3.10;;
80637;SDS011;69991;51.760;19.528;2023-12-20T10:53:29;4.20;;;2.00;;
80637;SDS011;69991;51.760;19.528;2023-12-20T10:56:00;4.10;;;2.20;;
80637;SDS011;69991;51.760;19.528;2023-12-20T10:58:29;5.20;;;2.30;;
80637;SDS011;69991;51.760;19.528;2023-12-20T11:01:01;5.00;;;2.00;;
80637;SDS011;69991;51.760;19.528;2023-12-20T11:03:32;4.80;;;2.50;;
80637;SDS011;69991;51.760;19.528;2023-12-20T11:06:09;5.80;;;2.80;;
80637;SDS011;69991;51.760;19.528;2023-12-20T11:08:53;6.50;;;3.00;;
80637;SDS011;69991;51.760;19.528;2023-12-20T11:14:46;5.30;;;2.60;;
80637;SDS011;69991;51.760;19.528;2023-12-20T11:17:16;4.90;;;2.80;;
80637;SDS011;69991;51.760;19.528;2023-12-20T11:22:24;5.30;;;3.00;;
80637;SDS011;69991;51.760;19.528;2023-12-20T11:24:54;6.60;;;3.30;;
80637;SDS011;69991;51.760;19.528;2023-12-20T11:27:27;5.20;;;2.90;;
80637;SDS011;69991;51.760;19.528;2023-12-20T11:29:56;7.40;;;3.20;;
80637;SDS011;69991;51.760;19.528;2023-12-20T11:35:00;5.80;;;3.10;;
80637;SDS011;69991;51.760;19.528;2023-12-20T11:37:45;6.00;;;3.30;;
80637;SDS011;69991;51.760;19.528;2023-12-20T11:40:18;5.50;;;3.30;;
80637;SDS011;69991;51.760;19.528;2023-12-20T11:42:48;4.50;;;2.50;;
80637;SDS011;69991;51.760;19.528;2023-12-20T11:45:19;5.20;;;2.60;;
80637;SDS011;69991;51.760;19.528;2023-12-20T11:47:55;6.70;;;3.40;;
80637;SDS011;69991;51.760;19.528;2023-12-20T11:50:26;6.70;;;3.70;;
80637;SDS011;69991;51.760;19.528;2023-12-20T11:52:56;7.80;;;4.60;;
80637;SDS011;69991;51.760;19.528;2023-12-20T11:55:25;6.70;;;2.90;;
80637;SDS011;69991;51.760;19.528;2023-12-20T11:57:54;4.70;;;2.20;;
80637;SDS011;69991;51.760;19.528;2023-12-20T12:00:24;6.00;;;3.50;;
80637;SDS011;69991;51.760;19.528;2023-12-20T12:02:56;6.90;;;3.50;;
80637;SDS011;69991;51.760;19.528;2023-12-20T12:05:30;5.10;;;2.50;;
80637;SDS011;69991;51.760;19.528;2023-12-20T12:08:00;6.00;;;3.90;;
80637;SDS011;69991;51.760;19.528;2023-12-20T12:10:29;7.30;;;4.10;;
80637;SDS011;69991;51.760;19.528;2023-12-20T12:12:59;5.20;;;3.00;;
80637;SDS011;69991;51.760;19.528;2023-12-20T12:15:29;8.10;;;3.50;;
80637;SDS011;69991;51.760;19.528;2023-12-20T12:17:58;6.20;;;3.50;;
80637;SDS011;69991;51.760;19.528;2023-12-20T12:20:28;6.70;;;3.80;;
80637;SDS011;69991;51.760;19.528;2023-12-20T12:22:58;7.70;;;3.70;;
80637;SDS011;69991;51.760;19.528;2023-12-20T12:25:29;7.10;;;4.20;;
80637;SDS011;69991;51.760;19.528;2023-12-20T12:28:00;6.50;;;3.30;;
80637;SDS011;69991;51.760;19.528;2023-12-20T12:30:30;5.20;;;3.40;;
80637;SDS011;69991;51.760;19.528;2023-12-20T12:33:06;6.20;;;3.20;;
80637;SDS011;69991;51.760;19.528;2023-12-20T12:35:36;6.80;;;3.30;;
80637;SDS011;69991;51.760;19.528;2023-12-20T12:38:06;5.80;;;3.20;;
80637;SDS011;69991;51.760;19.528;2023-12-20T12:40:36;4.50;;;2.30;;
80637;SDS011;69991;51.760;19.528;2023-12-20T12:43:05;6.80;;;3.40;;
80637;SDS011;69991;51.760;19.528;2023-12-20T12:45:35;5.70;;;3.10;;
80637;SDS011;69991;51.760;19.528;2023-12-20T12:48:05;7.70;;;4.10;;
80637;SDS011;69991;51.760;19.528;2023-12-20T12:50:35;7.10;;;4.00;;
80637;SDS011;69991;51.760;19.528;2023-12-20T12:53:04;6.80;;;3.60;;
80637;SDS011;69991;51.760;19.528;2023-12-20T12:55:34;6.90;;;2.70;;
80637;SDS011;69991;51.760;19.528;2023-12-20T12:58:04;5.10;;;3.20;;
80637;SDS011;69991;51.760;19.528;2023-12-20T13:00:33;8.60;;;3.50;;
80637;SDS011;69991;51.760;19.528;2023-12-20T13:03:02;7.80;;;4.40;;
80637;SDS011;69991;51.760;19.528;2023-12-20T13:05:32;7.80;;;3.90;;
80637;SDS011;69991;51.760;19.528;2023-12-20T13:08:07;6.40;;;3.20;;
80637;SDS011;69991;51.760;19.528;2023-12-20T13:10:36;7.10;;;2.70;;
80637;SDS011;69991;51.760;19.528;2023-12-20T13:13:05;5.30;;;3.00;;
80637;SDS011;69991;51.760;19.528;2023-12-20T13:15:34;8.40;;;4.70;;
80637;SDS011;69991;51.760;19.528;2023-12-20T13:18:04;7.40;;;3.50;;
80637;SDS011;69991;51.760;19.528;2023-12-20T13:20:35;10.20;;;4.00;;
80637;SDS011;69991;51.760;19.528;2023-12-20T13:23:04;7.40;;;3.60;;
80637;SDS011;69991;51.760;19.528;2023-12-20T13:25:33;6.70;;;2.40;;
80637;SDS011;69991;51.760;19.528;2023-12-20T13:28:03;6.90;;;3.10;;
80637;SDS011;69991;51.760;19.528;2023-12-20T13:30:32;5.70;;;2.60;;
80637;SDS011;69991;51.760;19.528;2023-12-20T13:33:03;9.40;;;4.10;;
80637;SDS011;69991;51.760;19.528;2023-12-20T13:35:32;7.70;;;3.90;;
80637;SDS011;69991;51.760;19.528;2023-12-20T13:38:02;8.20;;;4.30;;
80637;SDS011;69991;51.760;19.528;2023-12-20T13:40:32;7.80;;;3.60;;
80637;SDS011;69991;51.760;19.528;2023-12-20T13:43:01;7.30;;;2.60;;
80637;SDS011;69991;51.760;19.528;2023-12-20T13:45:32;6.40;;;2.80;;
80637;SDS011;69991;51.760;19.528;2023-12-20T13:48:01;7.70;;;3.90;;
80637;SDS011;69991;51.760;19.528;2023-12-20T13:50:30;6.90;;;3.30;;
80637;SDS011;69991;51.760;19.528;2023-12-20T13:52:59;7.70;;;3.10;;
80637;SDS011;69991;51.760;19.528;2023-12-20T13:55:29;4.50;;;2.20;;
80637;SDS011;69991;51.760;19.528;2023-12-20T13:57:59;6.00;;;2.40;;
80637;SDS011;69991;51.760;19.528;2023-12-20T14:00:29;6.50;;;3.00;;
80637;SDS011;69991;51.760;19.528;2023-12-20T14:02:57;6.90;;;3.20;;
80637;SDS011;69991;51.760;19.528;2023-12-20T14:05:27;6.50;;;3.20;;
80637;SDS011;69991;51.760;19.528;2023-12-20T14:07:57;5.20;;;2.40;;
80637;SDS011;69991;51.760;19.528;2023-12-20T14:10:26;9.50;;;4.40;;
80637;SDS011;69991;51.760;19.528;2023-12-20T14:12:56;6.80;;;3.60;;
80637;SDS011;69991;51.760;19.528;2023-12-20T14:15:25;5.80;;;2.60;;
80637;SDS011;69991;51.760;19.528;2023-12-20T14:17:55;6.10;;;2.70;;
80637;SDS011;69991;51.760;19.528;2023-12-20T14:20:25;4.50;;;1.80;;
80637;SDS011;69991;51.760;19.528;2023-12-20T14:22:54;4.70;;;2.40;;
80637;SDS011;69991;51.760;19.528;2023-12-20T14:25:23;5.00;;;2.40;;
80637;SDS011;69991;51.760;19.528;2023-12-20T14:27:52;6.20;;;2.60;;
80637;SDS011;69991;51.760;19.528;2023-12-20T14:30:22;5.50;;;2.70;;
80637;SDS011;69991;51.760;19.528;2023-12-20T14:32:51;6.20;;;2.70;;
80637;SDS011;69991;51.760;19.528;2023-12-20T14:35:20;3.90;;;1.70;;
80637;SDS011;69991;51.760;19.528;2023-12-20T14:37:49;8.00;;;2.50;;
80637;SDS011;69991;51.760;19.528;2023-12-20T14:40:19;8.30;;;3.00;;
80637;SDS011;69991;51.760;19.528;2023-12-20T14:42:48;6.20;;;2.50;;
80637;SDS011;69991;51.760;19.528;2023-12-20T14:45:18;4.50;;;2.20;;
80637;SDS011;69991;51.760;19.528;2023-12-20T14:47:47;5.20;;;1.90;;
80637;SDS011;69991;51.760;19.528;2023-12-20T14:50:17;5.30;;;2.20;;
80637;SDS011;69991;51.760;19.528;2023-12-20T14:52:48;4.50;;;1.70;;
80637;SDS011;69991;51.760;19.528;2023-12-20T14:55:17;3.70;;;1.40;;
80637;SDS011;69991;51.760;19.528;2023-12-20T14:57:46;5.20;;;1.60;;